Rurrenabaque, Bolivia
Current Conditions -  °F | °C
As of 12:00 AM on Sunday 21 Dec 2014 (Local Time) from SLLP Reporting Station
Broken Clouds Broken Clouds  
Wind Chill: 44°   Ceiling: 20000
Heat Index: 46°   Visibility: 6mi
Dew Point: 43°   Wind: 5mph
Humidity: 87%   Direction: 100°E
Pressure: 30.53"   Gusts: NA
Location:  14.46°S, 67.56°W
Report Text: SLLP 210400Z 10004KT 9999 FEW004 FEW017CB SCT070 BKN200 08/06 Q1034
Loading
Personal Weather Stations






























Interactive Weather Map New forecast layout! Learn more

10-Day Weather Forecast

Advertisements
Track Severe Weather on mobile